Beef Island, British Virgin Islands

12:45 PM AST on March 04, 2015 (GMT -0400)
Beef I International | Change Station
CLOSE
Current Station
Airport
Location: Beef Island,
Elevation: 13 ft
Nearby Weather Stations

Elev 13 ft 18.44 °N, 64.54 °W | Updated 45 minutes ago

Scattered Clouds
Scattered Clouds
84 °F
Feels Like 88 °F
N
14
Wind Variable Wind from East
Gusts 26 mph

Today
High -- | Low -- °F
--% Chance of Precip.
Yesterday
High -- | Low -- °F
Precip. -- in
6:35 AM 6:24 PM
Waxing Gibbous, 99% visible
Pressure 30.12 in
Visibility 6.2 miles
Clouds Scattered Clouds 2000 ft
Heat Index 88 °F
Dew Point 70 °F
Humidity 62%
Rainfall 0.00 in
Snow Depth Not available.
UV 8 out of 12
Pollen Not available.
Air Quality Not available.
Flu Activity Not available.
METAR TUPJ 041600Z 09012G23KT 9999 SCT020 29/21 Q1020 RMK A3012

More Conditions Fewer Conditions

Pressure 30.12 in
Visibility 6.2 miles
Clouds Scattered Clouds 2000 ft
Heat Index 88 °F
Dew Point 70 °F
Humidity 62%
Rainfall 0.00 in
Snow Depth Not available.
UV 8 out of 12
Pollen Not available.
Air Quality Not available.
Flu Activity Not available.
METAR TUPJ 041600Z 09012G23KT 9999 SCT020 29/21 Q1020 RMK A3012

More Conditions Fewer Conditions

10-Day Weather Forecast

Almanac

Astronomy

Mar. 04, 2015 Rise Set
Actual Time
Civil Twilight
Nautical Twilight
Astronomical Twilight
Moon
Length of Visible Light
Length of Day
Tomorrow will be .
, % of the Moon is Illuminated

Today's Extremes

Country Highs Country Lows

Community

WunderPhotos

Upload Photos

1,802,503 photos uploaded!

WunderBlogs® & News

Nearby

Air Quality

  Air Quality AQ Index Pollutant
Not available.

Snow Depth

Station Depth Elevation

Earthquake Activity

City Distance Mag. Time & Date
Minimum magnitude displayed is 2.5.

Coastal Water Temperatures

Place Temperature

Nearby Weather Stations